Archival Weather

Chicago O'Hare International

Chicago, Illinois (KORD)

Report from: Saturday, May 20, 2023 2:51 PM CDT
Current time: Sunday, February 25, 2024 4:29 PM CST

Current weather – Weather history – Daily summaries
Weather forecast

Temperature20.6°C (69.1°F)
Dew point6.7°C (44.1°F)
Winds 7 kts (3.6 m/s, 8.1 mph) East (100°)
Visibility10 mi. (16.1 km)
Clouds Few clouds 5,000 ft. (1,524 m)
Altimeter30.15 in.Hg (1021 mB)
Relative humidity41 %
Density altitude545 ft. (166 m)
Sea-level pressure102.1 kPa (1021 mB, 30.14 in.Hg)
Remarks Automated weather observing station with precipitation discriminator
Flight conditions Visual Meteorological Conditions
Raw dataKORD 201951Z 10007KT 10SM FEW050 21/07 A3015 RMK AO2 SLP208 T02060067
An error has occurred. This application may no longer respond until reloaded. Reload 🗙